logo
Search for airport 
image banner adimage banner adimage banner ad
image banner ad

OEAD - Aradah

Located in , Saudi Arabia

ICAO - , IATA -

Data provided by Airmate  

General information

Coordinates: N21°13'7" E55°15'44"
Elevation is 262 feet MSL.
 
View others Airports in Ash Sharqiyah

Operational data

Special qualification required
Current time UTC:
Current local time:
Weather at : - ( 0 km )
METAR: EKKA 202357Z AUTO 34003KT 0400 R09R/0550N R27L/P2000N FG VV002 M00/M00 Q1023
View NOTAMs / SUP AIP / TFR affecting this airport [VIEW]
Communications frequencies: [VIEW]

Runways:

RWY identifierQFULength (ft)Width (ft)SurfaceLDA (ft)
0334°689098UNK
21214°689098UNK

Airport contact information

Address: Saudi Arabia

Satellite view of OEAD